createdAt,value
2018-09-12T00:01:38.699Z,50.72
2018-09-12T00:04:07.791Z,51.08
2018-09-12T00:06:38.736Z,50.98
2018-09-12T00:09:09.761Z,51.16
2018-09-12T00:11:38.992Z,50.59
2018-09-12T00:14:08.623Z,50.97
2018-09-12T00:16:38.063Z,50.63
2018-09-12T00:19:07.483Z,51.07
2018-09-12T00:21:36.933Z,50.66
2018-09-12T00:24:06.148Z,51.20
2018-09-12T00:26:35.231Z,50.79
2018-09-12T00:29:04.360Z,50.95
2018-09-12T00:31:33.506Z,50.74
2018-09-12T00:34:02.627Z,51.16
2018-09-12T00:36:32.010Z,51.17
2018-09-12T00:39:01.096Z,51.01
2018-09-12T00:41:30.296Z,50.96
2018-09-12T00:43:59.374Z,51.12
2018-09-12T00:46:28.488Z,50.99
2018-09-12T00:48:57.472Z,50.89
2018-09-12T00:51:26.684Z,50.90
2018-09-12T00:53:55.770Z,51.01
2018-09-12T00:56:24.859Z,51.17
2018-09-12T00:58:53.980Z,51.08
2018-09-12T01:01:23.072Z,50.57
2018-09-12T01:03:52.172Z,50.51
2018-09-12T01:06:21.228Z,50.73
2018-09-12T01:08:50.363Z,50.51
2018-09-12T01:11:22.422Z,50.75
2018-09-12T01:13:51.912Z,50.70
2018-09-12T01:16:21.197Z,50.97
2018-09-12T01:18:50.256Z,51.12
2018-09-12T01:21:19.432Z,50.89
2018-09-12T01:23:48.491Z,51.00
2018-09-12T01:26:17.584Z,50.93
2018-09-12T01:28:46.687Z,50.89
2018-09-12T01:31:15.796Z,51.24
2018-09-12T01:33:44.931Z,50.92
2018-09-12T01:36:14.099Z,51.29
2018-09-12T01:38:43.288Z,51.18
2018-09-12T01:41:12.419Z,51.09
2018-09-12T01:43:41.488Z,51.47
2018-09-12T01:46:10.568Z,51.08
2018-09-12T01:48:39.689Z,50.93
2018-09-12T01:51:08.744Z,50.92
2018-09-12T01:53:37.878Z,51.09
2018-09-12T01:56:06.940Z,51.26
2018-09-12T01:58:36.004Z,51.16
2018-09-12T02:01:05.148Z,50.95
2018-09-12T02:03:34.252Z,51.13
2018-09-12T02:06:03.648Z,50.71
2018-09-12T02:08:32.750Z,51.00
2018-09-12T02:11:01.838Z,51.07
2018-09-12T02:13:30.920Z,50.88
2018-09-12T02:15:59.993Z,50.93
2018-09-12T02:18:29.140Z,51.09
2018-09-12T02:20:58.231Z,50.88
2018-09-12T02:23:27.314Z,50.88
2018-09-12T02:25:56.541Z,50.82
2018-09-12T02:28:25.672Z,51.45
2018-09-12T02:30:54.879Z,50.70
2018-09-12T02:33:24.000Z,50.87
2018-09-12T02:35:58.502Z,50.88
2018-09-12T02:38:27.627Z,51.00
2018-09-12T02:40:56.924Z,51.04
2018-09-12T02:43:26.031Z,51.40
2018-09-12T02:45:55.101Z,51.31
2018-09-12T02:48:24.222Z,51.15
2018-09-12T02:50:53.435Z,51.39
2018-09-12T02:53:22.476Z,51.19
2018-09-12T02:55:51.594Z,51.05
2018-09-12T02:58:20.727Z,51.27
2018-09-12T03:00:49.492Z,51.38
2018-09-12T03:03:18.566Z,51.24
2018-09-12T03:05:47.636Z,51.68
2018-09-12T03:08:16.901Z,51.70
2018-09-12T03:10:45.938Z,51.55
2018-09-12T03:13:15.004Z,51.48
2018-09-12T03:15:44.067Z,51.19
2018-09-12T03:18:13.166Z,51.35
2018-09-12T03:20:42.374Z,51.25
2018-09-12T03:23:11.547Z,51.38
2018-09-12T03:25:40.529Z,51.36
2018-09-12T03:28:09.579Z,51.35
2018-09-12T03:30:38.703Z,51.31
2018-09-12T03:33:07.767Z,51.09
2018-09-12T03:35:36.819Z,51.41
2018-09-12T03:38:05.941Z,51.39
2018-09-12T03:40:34.997Z,51.43
2018-09-12T03:43:04.080Z,51.57
2018-09-12T03:45:33.161Z,51.10
2018-09-12T03:48:02.348Z,51.47
2018-09-12T03:50:31.559Z,51.25
2018-09-12T03:53:00.635Z,51.24
2018-09-12T03:55:29.784Z,50.94
2018-09-12T03:57:58.901Z,51.19
2018-09-12T04:00:28.023Z,51.07
2018-09-12T04:02:57.167Z,50.79
2018-09-12T04:05:26.509Z,51.10
2018-09-12T04:07:55.623Z,51.22
2018-09-12T04:10:24.789Z,51.09
2018-09-12T04:12:53.997Z,51.48
2018-09-12T04:15:23.007Z,51.14
2018-09-12T04:17:52.003Z,50.99
2018-09-12T04:20:21.078Z,50.97
2018-09-12T04:22:50.104Z,51.33
2018-09-12T04:25:19.265Z,51.33
2018-09-12T04:27:48.327Z,50.99
2018-09-12T04:30:17.417Z,51.16
2018-09-12T04:32:46.576Z,51.47
2018-09-12T04:35:15.665Z,51.16
2018-09-12T04:37:44.707Z,51.52
2018-09-12T04:40:13.864Z,51.21
2018-09-12T04:42:43.023Z,51.29
2018-09-12T04:45:12.332Z,51.49
2018-09-12T04:47:41.409Z,51.28
2018-09-12T04:50:10.117Z,51.25
2018-09-12T04:52:39.215Z,51.47
2018-09-12T04:55:09.208Z,51.12
2018-09-12T04:57:38.330Z,51.04
2018-09-12T05:00:07.486Z,51.19
2018-09-12T05:02:36.683Z,50.83
2018-09-12T05:05:05.953Z,50.92
2018-09-12T05:07:35.123Z,50.97
2018-09-12T05:10:04.166Z,50.99
2018-09-12T05:12:33.485Z,51.11
2018-09-12T05:15:02.641Z,51.01
2018-09-12T05:17:31.936Z,51.24
2018-09-12T05:20:01.015Z,51.37
2018-09-12T05:22:30.128Z,51.14
2018-09-12T05:24:59.300Z,51.33
2018-09-12T05:27:28.397Z,51.26
2018-09-12T05:29:57.619Z,51.20
2018-09-12T05:32:26.756Z,50.96
2018-09-12T05:34:55.903Z,51.32
2018-09-12T05:37:24.996Z,51.19
2018-09-12T05:39:54.487Z,51.32
2018-09-12T05:42:23.560Z,51.46
2018-09-12T05:44:52.659Z,51.46
2018-09-12T05:47:21.828Z,51.42
2018-09-12T05:49:50.901Z,51.39
2018-09-12T05:52:20.099Z,51.44
2018-09-12T05:54:49.275Z,51.12
2018-09-12T05:57:18.459Z,51.07
2018-09-12T05:59:47.656Z,51.42
2018-09-12T06:02:16.728Z,50.92
2018-09-12T06:04:45.809Z,51.26
2018-09-12T06:07:15.195Z,51.54
2018-09-12T06:09:44.300Z,51.38
2018-09-12T06:12:13.404Z,51.81
2018-09-12T06:14:42.512Z,51.58
2018-09-12T06:17:11.668Z,51.32
2018-09-12T06:19:40.770Z,51.64
2018-09-12T06:22:09.816Z,51.44
2018-09-12T06:24:38.817Z,51.32
2018-09-12T06:27:07.876Z,51.27
2018-09-12T06:29:37.832Z,51.04
2018-09-12T06:32:06.911Z,51.05
2018-09-12T06:34:35.972Z,51.04
2018-09-12T06:37:05.088Z,51.45
2018-09-12T06:39:34.296Z,51.10
2018-09-12T06:42:03.257Z,51.36
2018-09-12T06:44:32.385Z,50.88
2018-09-12T06:47:01.727Z,50.98
2018-09-12T06:49:30.823Z,50.76
2018-09-12T06:51:59.929Z,51.02
2018-09-12T06:54:29.175Z,51.13
2018-09-12T06:56:58.532Z,51.04
2018-09-12T06:59:27.532Z,50.74
2018-09-12T07:01:56.624Z,51.02
2018-09-12T07:04:25.703Z,50.84
2018-09-12T07:06:54.817Z,50.74
2018-09-12T07:09:23.885Z,50.95
2018-09-12T07:11:52.940Z,50.88
2018-09-12T07:14:22.061Z,50.47
2018-09-12T07:16:51.379Z,50.81
2018-09-12T07:19:20.495Z,50.54
2018-09-12T07:21:49.603Z,50.34
2018-09-12T07:24:18.820Z,50.75
2018-09-12T07:26:48.083Z,50.46
2018-09-12T07:29:17.151Z,50.53
2018-09-12T07:31:46.373Z,50.56
2018-09-12T07:34:15.408Z,50.22
2018-09-12T07:36:44.500Z,50.58
2018-09-12T07:39:14.186Z,50.55
2018-09-12T07:41:43.609Z,50.38
2018-09-12T07:44:12.812Z,50.39
2018-09-12T07:46:41.888Z,50.25
2018-09-12T07:49:10.980Z,49.93
2018-09-12T07:51:40.210Z,49.80
2018-09-12T07:54:09.380Z,49.86
2018-09-12T07:56:38.495Z,50.02
2018-09-12T07:59:07.779Z,49.89
2018-09-12T08:01:36.815Z,49.80
2018-09-12T08:04:05.941Z,49.76
2018-09-12T08:06:35.051Z,50.03
2018-09-12T08:09:06.896Z,49.55
2018-09-12T08:11:36.124Z,49.81
2018-09-12T08:14:05.192Z,49.75
2018-09-12T08:16:34.323Z,49.39
2018-09-12T08:19:03.422Z,49.42
2018-09-12T08:21:32.602Z,49.74
2018-09-12T08:24:01.732Z,49.71
2018-09-12T08:26:30.884Z,49.59
2018-09-12T08:28:59.980Z,49.22
2018-09-12T08:31:29.069Z,49.28
2018-09-12T08:33:58.117Z,49.37
2018-09-12T08:36:27.287Z,49.51
2018-09-12T08:38:56.558Z,49.29
2018-09-12T08:41:25.664Z,49.24
2018-09-12T08:43:54.770Z,49.32
2018-09-12T08:46:23.876Z,49.48
2018-09-12T08:48:52.944Z,49.23
2018-09-12T08:51:22.061Z,49.56
2018-09-12T08:53:51.138Z,49.08
2018-09-12T08:56:20.308Z,49.04
2018-09-12T08:58:49.369Z,49.42
2018-09-12T09:01:18.557Z,49.06
2018-09-12T09:03:47.837Z,48.86
2018-09-12T09:06:17.228Z,49.35
2018-09-12T09:08:46.308Z,49.30
2018-09-12T09:11:15.381Z,49.21
2018-09-12T09:13:44.582Z,48.83
2018-09-12T09:16:13.722Z,49.03
2018-09-12T09:18:42.831Z,49.18
2018-09-12T09:21:11.990Z,48.81
2018-09-12T09:23:41.078Z,49.16
2018-09-12T09:26:10.329Z,49.23
2018-09-12T09:28:39.402Z,49.00
2018-09-12T09:31:08.608Z,48.94
2018-09-12T09:33:37.722Z,49.13
2018-09-12T09:36:06.889Z,49.19
2018-09-12T09:38:35.983Z,48.95
2018-09-12T09:41:05.068Z,48.77
2018-09-12T09:43:34.318Z,48.88
2018-09-12T09:46:03.409Z,48.84
2018-09-12T09:48:32.519Z,48.65
2018-09-12T09:51:01.777Z,48.90
2018-09-12T09:53:30.892Z,48.99
2018-09-12T09:56:00.308Z,48.74
2018-09-12T09:58:29.340Z,48.60
2018-09-12T10:01:04.052Z,48.72
2018-09-12T10:03:38.539Z,48.59
2018-09-12T10:06:12.974Z,48.76
2018-09-12T10:08:47.508Z,48.80
2018-09-12T10:11:16.596Z,48.52
2018-09-12T10:13:45.752Z,48.73
2018-09-12T10:16:14.883Z,48.49
2018-09-12T10:18:43.955Z,48.63
2018-09-12T10:21:13.038Z,48.45
2018-09-12T10:23:42.049Z,48.44
2018-09-12T10:26:11.162Z,48.42
2018-09-12T10:28:40.200Z,48.52
2018-09-12T10:31:09.252Z,48.66
2018-09-12T10:33:38.329Z,48.45
2018-09-12T10:36:07.416Z,48.12
2018-09-12T10:38:37.267Z,48.36
2018-09-12T10:41:06.446Z,48.31
2018-09-12T10:43:35.666Z,48.46
2018-09-12T10:46:04.740Z,48.53
2018-09-12T10:48:34.032Z,48.60
2018-09-12T10:51:03.243Z,48.27
2018-09-12T10:53:32.550Z,48.11
2018-09-12T10:56:01.787Z,48.87
2018-09-12T10:58:30.940Z,48.42
2018-09-12T11:01:00.001Z,48.36
2018-09-12T11:03:29.097Z,48.03
2018-09-12T11:05:58.194Z,47.89
2018-09-12T11:08:27.304Z,48.05
2018-09-12T11:10:56.431Z,48.16
2018-09-12T11:13:25.521Z,48.18
2018-09-12T11:15:54.552Z,48.04
2018-09-12T11:18:23.722Z,48.05
2018-09-12T11:20:52.806Z,48.07
2018-09-12T11:23:21.904Z,48.12
2018-09-12T11:25:51.030Z,48.57
2018-09-12T11:28:20.168Z,48.08
2018-09-12T11:30:49.297Z,47.84
2018-09-12T11:33:18.392Z,48.09
2018-09-12T11:35:47.536Z,48.38
2018-09-12T11:38:16.786Z,48.07
2018-09-12T11:40:45.891Z,47.94
2018-09-12T11:43:14.964Z,48.10
2018-09-12T11:45:51.140Z,48.08
2018-09-12T11:48:20.227Z,48.07
2018-09-12T11:50:49.310Z,48.08
2018-09-12T11:53:18.456Z,47.78
2018-09-12T11:55:47.632Z,47.72
2018-09-12T11:58:16.673Z,47.75
2018-09-12T12:00:45.780Z,47.88
2018-09-12T12:03:14.882Z,47.66
2018-09-12T12:05:43.979Z,47.76
2018-09-12T12:08:13.192Z,47.98
2018-09-12T12:10:42.306Z,47.88
2018-09-12T12:13:11.578Z,47.77
2018-09-12T12:15:40.676Z,47.92
2018-09-12T12:18:09.784Z,47.74
2018-09-12T12:20:38.892Z,48.07
2018-09-12T12:23:07.990Z,47.78
2018-09-12T12:25:37.243Z,47.52
2018-09-12T12:28:06.563Z,47.84
2018-09-12T12:30:35.643Z,47.55
2018-09-12T12:33:04.742Z,47.75
2018-09-12T12:35:33.973Z,47.68
2018-09-12T12:38:03.120Z,47.32
2018-09-12T12:40:32.210Z,47.66
2018-09-12T12:43:01.349Z,47.22
2018-09-12T12:45:30.395Z,47.21
2018-09-12T12:47:59.459Z,47.35
2018-09-12T12:50:28.549Z,47.59
2018-09-12T12:52:57.727Z,47.15
2018-09-12T12:55:26.819Z,47.26
2018-09-12T12:57:55.948Z,46.89
2018-09-12T13:00:25.759Z,47.07
2018-09-12T13:02:54.838Z,47.15
2018-09-12T13:05:23.907Z,47.27
2018-09-12T13:07:53.009Z,47.09
2018-09-12T13:10:37.924Z,47.30
2018-09-12T13:13:07.024Z,47.06
2018-09-12T13:15:36.224Z,47.27
2018-09-12T13:18:05.524Z,47.30
2018-09-12T13:20:34.706Z,47.38
2018-09-12T13:23:03.801Z,47.08
2018-09-12T13:25:32.999Z,47.15
2018-09-12T13:28:02.095Z,47.35
2018-09-12T13:30:31.163Z,47.09
2018-09-12T13:33:00.288Z,46.48
2018-09-12T13:35:29.356Z,47.14
2018-09-12T13:37:58.480Z,46.91
2018-09-12T13:40:27.585Z,46.62
2018-09-12T13:42:56.670Z,46.76
2018-09-12T13:45:25.773Z,46.82
2018-09-12T13:47:55.008Z,46.67
2018-09-12T13:50:24.067Z,46.84
2018-09-12T13:52:53.140Z,46.81
2018-09-12T13:55:22.223Z,46.66
2018-09-12T13:57:51.414Z,47.01
2018-09-12T14:00:20.549Z,46.69
2018-09-12T14:02:49.596Z,46.86
2018-09-12T14:05:18.696Z,47.03
2018-09-12T14:07:47.823Z,46.54
2018-09-12T14:10:16.928Z,46.88
2018-09-12T14:12:45.990Z,46.48
2018-09-12T14:15:15.092Z,46.59
2018-09-12T14:17:44.222Z,46.99
2018-09-12T14:20:13.335Z,46.91
2018-09-12T14:22:42.491Z,46.46
2018-09-12T14:25:11.835Z,46.62
2018-09-12T14:27:41.160Z,46.60
2018-09-12T14:30:10.240Z,46.49
2018-09-12T14:32:39.319Z,46.42
2018-09-12T14:35:08.402Z,46.63
2018-09-12T14:37:37.643Z,46.41
2018-09-12T14:40:07.177Z,46.56
2018-09-12T14:42:36.331Z,46.37
2018-09-12T14:45:05.462Z,46.62
2018-09-12T14:47:34.702Z,46.31
2018-09-12T14:50:03.797Z,46.52
2018-09-12T14:52:32.872Z,46.54
2018-09-12T14:55:01.963Z,46.31
2018-09-12T14:57:31.085Z,46.68
2018-09-12T15:00:00.332Z,46.35
2018-09-12T15:02:29.457Z,46.72
2018-09-12T15:04:58.544Z,46.64
2018-09-12T15:07:27.825Z,46.22
2018-09-12T15:09:57.076Z,46.38
2018-09-12T15:12:26.173Z,46.33
2018-09-12T15:14:55.349Z,46.28
2018-09-12T15:17:24.499Z,46.12
2018-09-12T15:19:53.663Z,45.90
2018-09-12T15:22:22.741Z,45.84
2018-09-12T15:24:51.956Z,46.16
2018-09-12T15:27:21.032Z,46.19
2018-09-12T15:29:50.130Z,46.19
2018-09-12T15:32:19.284Z,46.14
2018-09-12T15:34:48.516Z,46.24
2018-09-12T15:37:17.710Z,46.32
2018-09-12T15:39:47.012Z,46.12
2018-09-12T15:42:16.143Z,45.94
2018-09-12T15:44:45.526Z,46.30
2018-09-12T15:47:14.721Z,46.05
2018-09-12T15:49:43.919Z,45.94
2018-09-12T15:52:13.028Z,46.19
2018-09-12T15:54:42.156Z,46.06
2018-09-12T15:57:11.214Z,45.90
2018-09-12T15:59:40.299Z,46.23
2018-09-12T16:02:09.400Z,46.14
2018-09-12T16:04:38.500Z,45.79
2018-09-12T16:07:07.588Z,45.96
2018-09-12T16:09:36.717Z,45.90
2018-09-12T16:12:05.868Z,45.64
2018-09-12T16:14:35.156Z,46.14
2018-09-12T16:17:04.336Z,45.86
2018-09-12T16:19:33.584Z,46.20
2018-09-12T16:22:02.942Z,45.82
2018-09-12T16:24:32.107Z,45.75
2018-09-12T16:27:01.180Z,45.69
2018-09-12T16:29:30.291Z,45.85
2018-09-12T16:31:59.378Z,46.03
2018-09-12T16:34:28.460Z,45.77
2018-09-12T16:36:57.569Z,45.80
2018-09-12T16:39:26.700Z,45.60
2018-09-12T16:41:55.879Z,45.51
2018-09-12T16:44:25.091Z,45.73
2018-09-12T16:46:54.256Z,45.67
2018-09-12T16:49:23.406Z,45.75
2018-09-12T16:51:52.773Z,45.84
2018-09-12T16:54:21.892Z,45.75
2018-09-12T16:56:51.085Z,45.67
2018-09-12T16:59:20.314Z,45.77
2018-09-12T17:01:49.459Z,45.86
2018-09-12T17:04:18.545Z,46.06
2018-09-12T17:06:47.630Z,45.67
2018-09-12T17:09:16.723Z,45.69
2018-09-12T17:11:45.801Z,45.93
2018-09-12T17:14:14.961Z,45.93
2018-09-12T17:16:44.355Z,45.91
2018-09-12T17:19:13.599Z,45.56
2018-09-12T17:21:42.717Z,46.06
2018-09-12T17:24:11.824Z,45.84
2018-09-12T17:26:41.064Z,46.01
2018-09-12T17:29:10.148Z,46.08
2018-09-12T17:31:39.212Z,45.61
2018-09-12T17:34:08.324Z,45.56
2018-09-12T17:36:37.419Z,45.35
2018-09-12T17:39:07.969Z,45.42
2018-09-12T17:41:37.049Z,45.54
2018-09-12T17:44:06.235Z,45.63
2018-09-12T17:46:35.351Z,45.92
2018-09-12T17:49:04.643Z,45.63
2018-09-12T17:51:33.711Z,45.61
2018-09-12T17:54:03.015Z,45.24
2018-09-12T17:56:32.103Z,45.12
2018-09-12T17:59:01.179Z,45.16
2018-09-12T18:01:30.296Z,45.22
2018-09-12T18:03:59.387Z,45.49
2018-09-12T18:06:28.500Z,45.70
2018-09-12T18:08:57.582Z,45.51
2018-09-12T18:11:26.767Z,45.45
2018-09-12T18:13:56.194Z,45.49
2018-09-12T18:16:25.323Z,45.42
2018-09-12T18:18:54.515Z,45.88
2018-09-12T18:21:23.621Z,45.70
2018-09-12T18:23:52.792Z,45.72
2018-09-12T18:26:21.980Z,45.28
2018-09-12T18:28:51.114Z,45.58
2018-09-12T18:31:20.301Z,45.29
2018-09-12T18:33:49.489Z,45.39
2018-09-12T18:36:18.691Z,45.46
2018-09-12T18:38:47.817Z,45.44
2018-09-12T18:41:16.983Z,45.84
2018-09-12T18:43:46.086Z,45.34
2018-09-12T18:46:15.177Z,45.42
2018-09-12T18:48:44.397Z,45.34
2018-09-12T18:51:13.564Z,45.74
2018-09-12T18:53:42.657Z,45.23
2018-09-12T18:56:11.776Z,45.70
2018-09-12T18:58:40.865Z,45.79
2018-09-12T19:01:10.043Z,45.50
2018-09-12T19:03:39.163Z,45.64
2018-09-12T19:06:08.287Z,45.81
2018-09-12T19:08:37.365Z,45.83
2018-09-12T19:11:06.577Z,45.89
2018-09-12T19:13:35.745Z,45.81
2018-09-12T19:16:04.845Z,45.95
2018-09-12T19:18:33.960Z,45.92
2018-09-12T19:21:03.257Z,45.49
2018-09-12T19:23:32.452Z,45.24
2018-09-12T19:26:01.538Z,45.37
2018-09-12T19:28:30.899Z,45.50
2018-09-12T19:31:00.001Z,45.42
2018-09-12T19:33:29.311Z,45.71
2018-09-12T19:35:58.413Z,45.86
2018-09-12T19:38:27.711Z,45.62
2018-09-12T19:40:56.711Z,45.68
2018-09-12T19:43:25.803Z,45.55
2018-09-12T19:45:54.899Z,45.45
2018-09-12T19:48:24.175Z,45.85
2018-09-12T19:50:53.331Z,45.51
2018-09-12T19:53:22.379Z,45.88
2018-09-12T19:55:51.468Z,45.81
2018-09-12T19:58:20.595Z,45.35
2018-09-12T20:00:49.779Z,45.57
2018-09-12T20:03:18.890Z,45.82
2018-09-12T20:05:48.281Z,45.39
2018-09-12T20:08:17.406Z,44.92
2018-09-12T20:10:46.663Z,45.08
2018-09-12T20:13:15.809Z,45.52
2018-09-12T20:15:44.993Z,45.17
2018-09-12T20:18:14.103Z,45.70
2018-09-12T20:20:43.819Z,45.74
2018-09-12T20:23:12.980Z,45.33
2018-09-12T20:25:42.641Z,45.70
2018-09-12T20:28:11.783Z,45.25
2018-09-12T20:30:40.912Z,45.29
2018-09-12T20:33:10.093Z,45.55
2018-09-12T20:35:39.215Z,45.49
2018-09-12T20:38:08.610Z,45.61
2018-09-12T20:40:37.718Z,45.44
2018-09-12T20:43:06.990Z,45.52
2018-09-12T20:45:36.084Z,45.58
2018-09-12T20:48:05.204Z,45.42
2018-09-12T20:50:34.504Z,45.68
2018-09-12T20:53:03.880Z,45.58
2018-09-12T20:55:33.091Z,45.67
2018-09-12T20:58:02.191Z,45.88
2018-09-12T21:00:31.281Z,45.87
2018-09-12T21:03:00.401Z,45.52
2018-09-12T21:05:29.464Z,45.69
2018-09-12T21:07:58.554Z,45.71
2018-09-12T21:10:27.656Z,45.69
2018-09-12T21:12:56.749Z,45.82
2018-09-12T21:15:25.844Z,45.50
2018-09-12T21:17:54.919Z,45.58
2018-09-12T21:20:24.092Z,45.32
2018-09-12T21:22:53.181Z,45.42
2018-09-12T21:25:22.261Z,45.70
2018-09-12T21:27:51.356Z,45.78
2018-09-12T21:30:20.520Z,45.37
2018-09-12T21:32:49.764Z,45.68
2018-09-12T21:35:18.835Z,45.35
2018-09-12T21:37:47.979Z,45.62
2018-09-12T21:40:17.183Z,45.59
2018-09-12T21:42:53.116Z,45.44
2018-09-12T21:45:22.250Z,45.62
2018-09-12T21:47:51.550Z,45.83
2018-09-12T21:50:20.668Z,45.89
2018-09-12T21:52:49.746Z,45.77
2018-09-12T21:55:18.856Z,45.72
2018-09-12T21:57:47.930Z,45.46
2018-09-12T22:00:17.343Z,45.47
2018-09-12T22:02:46.443Z,45.57
2018-09-12T22:05:15.546Z,45.77
2018-09-12T22:07:44.614Z,45.87
2018-09-12T22:10:13.724Z,45.40
2018-09-12T22:12:43.087Z,46.09
2018-09-12T22:15:12.211Z,45.49
2018-09-12T22:17:41.298Z,45.65
2018-09-12T22:20:10.394Z,45.73
2018-09-12T22:22:39.436Z,45.45
2018-09-12T22:25:08.544Z,45.58
2018-09-12T22:27:37.717Z,45.26
2018-09-12T22:30:07.880Z,45.65
2018-09-12T22:32:37.034Z,45.41
2018-09-12T22:35:06.135Z,45.69
2018-09-12T22:37:35.206Z,45.63
2018-09-12T22:40:04.592Z,45.48
2018-09-12T22:42:33.728Z,45.66
2018-09-12T22:45:02.798Z,45.78
2018-09-12T22:47:31.897Z,45.50
2018-09-12T22:50:00.994Z,45.58
2018-09-12T22:52:30.086Z,45.56
2018-09-12T22:54:59.147Z,45.39
2018-09-12T22:57:28.291Z,45.68
2018-09-12T22:59:57.482Z,45.77
2018-09-12T23:02:26.593Z,45.51
2018-09-12T23:04:55.687Z,45.26
2018-09-12T23:07:24.750Z,45.18
2018-09-12T23:09:53.884Z,45.48
2018-09-12T23:12:22.984Z,45.35
2018-09-12T23:14:52.044Z,45.77
2018-09-12T23:17:21.115Z,45.30
2018-09-12T23:19:50.200Z,45.33
2018-09-12T23:22:19.568Z,45.46
2018-09-12T23:24:48.636Z,45.46
2018-09-12T23:27:17.704Z,45.39
2018-09-12T23:29:47.060Z,45.21
2018-09-12T23:32:16.180Z,45.24
2018-09-12T23:34:45.354Z,45.43
2018-09-12T23:37:14.557Z,45.27
2018-09-12T23:39:43.618Z,45.15
2018-09-12T23:42:12.734Z,45.38
2018-09-12T23:44:41.818Z,45.32
2018-09-12T23:47:10.925Z,45.31
2018-09-12T23:49:40.022Z,45.23
2018-09-12T23:52:09.070Z,45.19
2018-09-12T23:54:38.464Z,45.23
2018-09-12T23:57:07.518Z,45.34
2018-09-12T23:59:36.584Z,45.59
